Time;durP1;ratioP1;P1;durP2;ratioP2;P2;SDS_P1;SDS_P2;PMS_P1;PMS_P2;Temp;Humidity;BMP_temperature;BMP_pressure;BME280_temperature;BME280_humidity;BME280_pressure;Samples;Min_cycle;Max_cycle;Signal;HPM_P1;HPM_P2
2020/12/21 00:01:22;;;;;;;152.80;51.33;;;7.10;99.90;;;;;;5025376;28;20459;-75
2020/12/21 00:03:48;;;;;;;116.47;39.33;;;7.10;99.90;;;;;;5014367;28;20026;-75
2020/12/21 00:06:24;;;;;;;160.45;58.08;;;7.10;99.90;;;;;;5013487;28;20041;-75
2020/12/21 00:08:51;;;;;;;208.73;83.35;;;7.00;99.90;;;;;;5013975;28;20487;-75
2020/12/21 00:11:17;;;;;;;168.35;57.53;;;7.00;99.90;;;;;;5014082;28;20467;-74
2020/12/21 00:13:43;;;;;;;158.38;52.25;;;6.90;99.90;;;;;;5013312;28;20045;-75
2020/12/21 00:16:12;;;;;;;161.25;51.88;;;6.90;99.90;;;;;;5013634;28;20045;-75
2020/12/21 00:18:39;;;;;;;209.23;80.82;;;7.00;99.90;;;;;;5014376;28;20037;-75
2020/12/21 00:21:11;;;;;;;209.95;78.63;;;7.00;99.90;;;;;;5013196;28;20057;-75
2020/12/21 00:23:37;;;;;;;176.40;61.42;;;6.90;99.90;;;;;;5013783;28;20038;-76
2020/12/21 00:26:07;;;;;;;151.65;53.53;;;6.90;99.90;;;;;;5013162;28;20029;-76
2020/12/21 00:28:33;;;;;;;139.82;50.13;;;6.90;99.90;;;;;;5014248;28;20026;-75
2020/12/21 00:30:59;;;;;;;260.52;96.65;;;6.80;99.90;;;;;;5013545;28;20061;-74
2020/12/21 00:33:31;;;;;;;285.27;105.72;;;6.80;99.90;;;;;;5013809;28;20022;-75
2020/12/21 00:35:57;;;;;;;210.27;78.60;;;6.80;99.90;;;;;;5013545;28;20045;-74
2020/12/21 00:38:23;;;;;;;208.10;75.78;;;6.80;99.90;;;;;;5012071;28;20049;-76
2020/12/21 00:40:49;;;;;;;274.63;113.97;;;6.80;99.90;;;;;;5013596;28;20045;-75
2020/12/21 00:43:16;;;;;;;214.07;77.40;;;6.80;99.90;;;;;;5013492;28;20026;-75
2020/12/21 00:45:42;;;;;;;202.75;75.38;;;6.70;99.90;;;;;;5012951;28;20105;-75
2020/12/21 00:48:08;;;;;;;199.10;76.30;;;6.70;99.90;;;;;;5013111;28;20033;-75
2020/12/21 00:50:34;;;;;;;153.00;52.88;;;6.70;99.90;;;;;;5013545;28;20042;-75
2020/12/21 00:53:00;;;;;;;169.40;61.58;;;6.60;99.90;;;;;;5010618;28;20042;-75
2020/12/21 00:55:27;;;;;;;162.95;55.30;;;6.60;99.90;;;;;;5013531;28;20033;-75
2020/12/21 00:57:53;;;;;;;172.38;54.75;;;6.70;99.90;;;;;;5012967;28;20497;-74
2020/12/21 01:00:19;;;;;;;172.90;54.88;;;6.70;99.90;;;;;;5014380;28;20040;-75
2020/12/21 01:02:45;;;;;;;155.77;54.28;;;6.70;99.90;;;;;;5013378;28;20470;-75
2020/12/21 01:05:12;;;;;;;165.80;54.17;;;6.70;99.90;;;;;;5012836;28;20041;-75
2020/12/21 01:07:38;;;;;;;161.77;55.33;;;6.60;99.90;;;;;;5013291;28;20487;-75
2020/12/21 01:10:04;;;;;;;232.98;90.07;;;6.50;99.90;;;;;;5012603;28;20033;-76
2020/12/21 01:12:30;;;;;;;183.73;60.70;;;6.30;99.90;;;;;;5012802;28;20038;-75
2020/12/21 01:14:56;;;;;;;153.25;53.88;;;6.20;99.90;;;;;;5012667;28;20038;-75
2020/12/21 01:17:22;;;;;;;157.13;52.67;;;6.00;99.90;;;;;;5013172;28;20041;-74
2020/12/21 01:19:49;;;;;;;179.73;66.35;;;6.10;99.90;;;;;;5012520;28;20037;-75
2020/12/21 01:22:15;;;;;;;156.48;59.33;;;6.00;99.90;;;;;;5012073;28;20045;-75
2020/12/21 01:24:41;;;;;;;190.85;74.90;;;6.00;99.90;;;;;;5013002;28;20032;-75
2020/12/21 01:27:08;;;;;;;153.00;51.75;;;6.00;99.90;;;;;;5012237;28;20475;-75
2020/12/21 01:29:34;;;;;;;296.05;120.68;;;6.10;99.90;;;;;;5012947;28;20061;-75
2020/12/21 01:32:01;;;;;;;169.13;62.25;;;6.10;99.90;;;;;;5012923;28;20034;-74
2020/12/21 01:34:27;;;;;;;171.98;60.33;;;6.10;99.90;;;;;;5012479;28;20034;-75
2020/12/21 01:36:53;;;;;;;233.85;82.75;;;6.00;99.90;;;;;;5012017;28;20046;-74
2020/12/21 01:39:19;;;;;;;155.45;55.30;;;5.90;99.90;;;;;;5012725;28;20037;-75
2020/12/21 01:41:45;;;;;;;197.10;71.20;;;5.80;99.90;;;;;;5012522;28;20033;-74
2020/12/21 01:44:12;;;;;;;220.45;70.07;;;5.70;99.90;;;;;;5011958;28;20506;-74
2020/12/21 01:46:38;;;;;;;237.80;77.43;;;5.70;99.90;;;;;;5012844;28;20078;-74
2020/12/21 01:49:04;;;;;;;199.32;68.82;;;5.70;99.90;;;;;;5011725;28;20041;-74
2020/12/21 01:51:31;;;;;;;221.85;75.68;;;5.60;99.90;;;;;;5012151;28;20033;-74
2020/12/21 01:53:58;;;;;;;200.27;65.75;;;5.70;99.90;;;;;;5011317;28;20044;-74
2020/12/21 01:56:24;;;;;;;177.18;55.88;;;5.70;99.90;;;;;;5012239;28;20037;-75
2020/12/21 01:58:51;;;;;;;161.55;54.90;;;5.70;99.90;;;;;;5012230;28;20025;-74
2020/12/21 02:01:18;;;;;;;177.00;55.15;;;5.70;99.90;;;;;;5012036;28;20038;-75
2020/12/21 02:03:45;;;;;;;177.88;54.60;;;5.70;99.90;;;;;;5012004;28;20033;-75
2020/12/21 02:06:12;;;;;;;177.73;56.40;;;5.80;99.90;;;;;;5011027;28;20046;-74
2020/12/21 02:08:38;;;;;;;180.95;56.08;;;5.90;99.90;;;;;;5012115;28;20037;-74
2020/12/21 02:11:05;;;;;;;188.10;56.60;;;5.90;99.90;;;;;;5022866;28;20053;-74
2020/12/21 02:13:31;;;;;;;177.38;55.70;;;6.00;99.90;;;;;;5012228;28;20033;-74
2020/12/21 02:16:00;;;;;;;183.18;54.95;;;6.00;99.90;;;;;;5011608;28;20455;-74
2020/12/21 02:18:27;;;;;;;183.48;57.83;;;6.00;99.90;;;;;;5011894;28;20498;-74
2020/12/21 02:20:53;;;;;;;176.85;55.40;;;6.00;99.90;;;;;;5010195;28;20046;-74
2020/12/21 02:23:19;;;;;;;218.32;71.70;;;6.00;99.90;;;;;;5011624;28;20479;-74
2020/12/21 02:25:45;;;;;;;199.95;62.30;;;6.00;99.90;;;;;;5011845;28;20037;-74
2020/12/21 02:28:11;;;;;;;179.05;55.72;;;6.00;99.90;;;;;;5011699;28;20030;-74
2020/12/21 02:30:38;;;;;;;175.65;62.67;;;6.00;99.90;;;;;;5010224;28;20054;-75
2020/12/21 02:33:07;;;;;;;181.70;56.88;;;6.00;99.90;;;;;;5010231;28;20046;-74
2020/12/21 02:35:35;;;;;;;169.05;55.67;;;6.00;99.90;;;;;;5011788;28;20034;-74
2020/12/21 02:38:06;;;;;;;178.00;53.50;;;5.90;99.90;;;;;;5011303;28;20038;-74
2020/12/21 02:40:34;;;;;;;166.15;52.78;;;5.70;99.90;;;;;;5011675;28;20057;-74
2020/12/21 02:43:01;;;;;;;154.65;50.13;;;5.60;99.90;;;;;;5011308;28;20033;-74
2020/12/21 02:45:27;;;;;;;157.65;49.58;;;5.60;99.90;;;;;;5011718;28;20038;-74
2020/12/21 02:47:54;;;;;;;140.77;48.75;;;5.50;99.90;;;;;;5011747;28;20022;-74
2020/12/21 02:50:20;;;;;;;165.50;49.15;;;5.60;99.90;;;;;;5013296;28;20049;-74
2020/12/21 02:52:46;;;;;;;149.45;49.78;;;5.60;99.90;;;;;;5011696;28;20034;-74
2020/12/21 02:55:12;;;;;;;164.48;51.90;;;5.70;99.90;;;;;;5011309;28;20151;-74
2020/12/21 02:57:39;;;;;;;150.13;49.60;;;5.70;99.90;;;;;;5011944;28;20050;-74
2020/12/21 03:00:09;;;;;;;161.30;49.65;;;5.70;99.90;;;;;;5011406;28;20041;-74
2020/12/21 03:02:35;;;;;;;155.27;50.95;;;5.70;99.90;;;;;;5011666;28;20026;-75
2020/12/21 03:05:01;;;;;;;145.35;51.22;;;5.60;99.90;;;;;;5009837;28;20383;-74
2020/12/21 03:07:28;;;;;;;152.48;49.28;;;5.50;99.90;;;;;;5011390;28;20383;-74
2020/12/21 03:09:54;;;;;;;159.23;49.20;;;5.40;99.90;;;;;;5011336;28;20042;-74
2020/12/21 03:12:20;;;;;;;141.95;47.30;;;5.40;99.90;;;;;;5011377;28;20034;-74
2020/12/21 03:14:46;;;;;;;142.75;46.40;;;5.30;99.90;;;;;;5011447;28;20038;-74
2020/12/21 03:17:12;;;;;;;139.88;47.60;;;5.40;99.90;;;;;;5014159;28;20499;-74
2020/12/21 03:19:39;;;;;;;138.88;46.47;;;5.40;99.90;;;;;;5013217;28;20056;-74
2020/12/21 03:22:05;;;;;;;150.75;47.88;;;5.40;99.90;;;;;;5014325;28;20490;-74
2020/12/21 03:24:31;;;;;;;153.60;48.17;;;5.40;99.90;;;;;;5014972;28;20041;-74
2020/12/21 03:26:58;;;;;;;135.70;48.28;;;5.30;99.90;;;;;;5014421;28;20420;-74
2020/12/21 03:29:24;;;;;;;144.98;49.90;;;5.20;99.90;;;;;;5015041;28;20034;-74
2020/12/21 03:31:50;;;;;;;150.02;51.72;;;5.20;99.90;;;;;;5014378;28;20030;-75
2020/12/21 03:34:16;;;;;;;138.75;47.95;;;5.20;99.90;;;;;;5014249;28;20038;-74
2020/12/21 03:36:43;;;;;;;161.93;50.45;;;5.20;99.90;;;;;;5014725;28;20045;-74
2020/12/21 03:39:10;;;;;;;173.20;52.33;;;5.20;99.90;;;;;;5014360;28;20037;-74
2020/12/21 03:41:36;;;;;;;170.82;52.20;;;5.20;99.90;;;;;;5014761;28;20041;-75
2020/12/21 03:44:02;;;;;;;181.20;51.67;;;5.10;99.90;;;;;;5013986;28;20025;-74
2020/12/21 03:46:29;;;;;;;172.93;52.30;;;5.10;99.90;;;;;;5014227;28;20026;-74
2020/12/21 03:48:55;;;;;;;162.45;53.13;;;5.10;99.90;;;;;;5014789;28;20025;-74
2020/12/21 03:51:21;;;;;;;167.35;52.10;;;5.10;99.90;;;;;;5014493;28;20399;-74
2020/12/21 03:53:47;;;;;;;173.45;51.53;;;5.00;99.90;;;;;;5014214;28;20395;-74
2020/12/21 03:56:14;;;;;;;177.85;51.20;;;4.90;99.90;;;;;;5013815;28;20033;-75
2020/12/21 03:58:40;;;;;;;166.75;52.63;;;4.90;99.90;;;;;;5014657;28;20478;-75
2020/12/21 04:01:06;;;;;;;156.27;53.15;;;5.00;99.90;;;;;;5013936;28;20042;-74
2020/12/21 04:03:32;;;;;;;149.38;51.13;;;5.00;99.90;;;;;;5014500;28;20022;-75
2020/12/21 04:05:58;;;;;;;159.48;53.78;;;5.00;99.90;;;;;;5013841;28;20034;-74
2020/12/21 04:08:25;;;;;;;152.38;49.17;;;5.00;99.90;;;;;;5013991;28;20026;-74
2020/12/21 04:10:51;;;;;;;159.13;49.47;;;5.00;99.90;;;;;;5014015;28;20526;-74
2020/12/21 04:13:17;;;;;;;150.20;49.38;;;4.90;99.90;;;;;;5014002;28;20622;-74
2020/12/21 04:15:44;;;;;;;146.30;48.17;;;5.00;99.90;;;;;;5012443;28;20048;-75
2020/12/21 04:18:10;;;;;;;134.27;50.08;;;5.00;99.90;;;;;;5011510;28;20034;-74
2020/12/21 04:20:36;;;;;;;142.20;48.03;;;5.00;99.90;;;;;;5014013;28;20049;-75
2020/12/21 04:23:03;;;;;;;142.95;49.28;;;5.00;99.90;;;;;;5012903;28;20048;-74
2020/12/21 04:25:29;;;;;;;127.75;47.25;;;4.90;99.90;;;;;;5013915;28;20029;-74
2020/12/21 04:27:56;;;;;;;143.50;48.33;;;5.00;99.90;;;;;;5012385;28;20480;-73
2020/12/21 04:30:22;;;;;;;136.45;49.80;;;5.10;99.90;;;;;;5011842;28;20137;-74
2020/12/21 04:32:48;;;;;;;158.20;49.60;;;5.10;99.90;;;;;;5013873;28;20049;-74
2020/12/21 04:35:14;;;;;;;133.73;48.00;;;5.10;99.90;;;;;;5013018;28;20033;-74
2020/12/21 04:37:41;;;;;;;136.35;48.55;;;5.00;99.90;;;;;;5015108;28;20387;-74
2020/12/21 04:40:07;;;;;;;140.82;46.83;;;4.90;99.90;;;;;;5013210;28;20042;-75
2020/12/21 04:42:45;;;;;;;125.97;47.08;;;4.90;99.90;;;;;;5013600;28;20034;-74
2020/12/21 04:45:12;;;;;;;119.43;44.88;;;4.80;99.90;;;;;;5012698;28;20391;-74
2020/12/21 04:47:42;;;;;;;127.95;45.95;;;4.80;99.90;;;;;;5013566;28;20034;-75
2020/12/21 04:50:11;;;;;;;120.80;43.75;;;4.70;99.90;;;;;;5012306;28;20041;-74
2020/12/21 04:52:49;;;;;;;137.85;43.13;;;4.70;99.90;;;;;;5013340;28;20042;-75
2020/12/21 04:55:19;;;;;;;113.32;42.55;;;4.60;99.90;;;;;;5013153;28;20041;-74
2020/12/21 04:57:59;;;;;;;126.60;44.15;;;4.60;99.90;;;;;;5013278;28;20486;-75
2020/12/21 05:00:27;;;;;;;110.88;44.03;;;4.50;99.90;;;;;;5011557;28;20037;-74
2020/12/21 05:02:54;;;;;;;129.15;43.40;;;4.50;99.90;;;;;;5012958;28;20037;-74
2020/12/21 05:05:30;;;;;;;126.10;45.10;;;4.60;99.90;;;;;;5012293;28;20037;-75
2020/12/21 05:07:58;;;;;;;120.28;44.15;;;4.50;99.90;;;;;;5012917;28;20049;-74
2020/12/21 05:10:24;;;;;;;128.20;44.08;;;4.50;99.90;;;;;;5012751;28;20038;-74
2020/12/21 05:13:00;;;;;;;124.93;44.38;;;4.50;99.90;;;;;;5031570;28;20033;-74
2020/12/21 05:15:27;;;;;;;119.43;44.70;;;4.50;99.90;;;;;;5013016;28;20041;-74
2020/12/21 05:18:11;;;;;;;135.18;47.80;;;4.60;99.90;;;;;;5012735;28;20029;-74
2020/12/21 05:20:39;;;;;;;141.00;49.28;;;4.70;99.90;;;;;;5011446;28;20046;-75
2020/12/21 05:23:15;;;;;;;150.75;51.05;;;4.80;99.90;;;;;;5012323;28;20053;-74
2020/12/21 05:25:41;;;;;;;150.60;52.55;;;4.80;99.90;;;;;;5012415;28;20041;-74
2020/12/21 05:28:12;;;;;;;149.07;49.88;;;4.90;99.90;;;;;;5012353;28;20033;-74
2020/12/21 05:30:51;;;;;;;;;;;5.10;99.90;;;;;;5013195;28;20046;-74
2020/12/21 05:33:18;;;;;;;139.00;49.50;;;5.10;99.90;;;;;;5012442;28;19905;-74
2020/12/21 05:35:45;;;;;;;144.82;51.65;;;5.10;99.90;;;;;;5011139;28;20498;-74
2020/12/21 05:38:28;;;;;;;155.02;53.83;;;5.10;99.90;;;;;;5011967;28;20434;-74
2020/12/21 05:41:16;;;;;;;160.55;51.75;;;5.10;99.90;;;;;;5012911;28;20042;-75
2020/12/21 05:43:44;;;;;;;149.13;51.17;;;5.10;99.90;;;;;;5012755;28;20030;-74
2020/12/21 05:46:20;;;;;;;145.80;51.92;;;5.20;99.90;;;;;;5012120;28;20044;-74
2020/12/21 05:48:49;;;;;;;133.77;49.88;;;5.10;99.90;;;;;;5012559;28;20061;-74
2020/12/21 05:51:31;;;;;;;135.77;49.97;;;5.00;99.90;;;;;;5011404;28;20054;-74
2020/12/21 05:54:02;;;;;;;145.32;52.90;;;5.00;99.90;;;;;;5012357;28;20034;-75
2020/12/21 05:56:34;;;;;;;166.60;52.58;;;5.20;99.90;;;;;;5012177;28;20034;-74
2020/12/21 05:59:01;;;;;;;173.13;54.17;;;5.20;99.90;;;;;;5012228;28;20034;-74
2020/12/21 06:01:28;;;;;;;153.32;52.45;;;5.20;99.90;;;;;;5012656;28;20498;-75
2020/12/21 06:04:02;;;;;;;143.60;52.47;;;5.20;99.90;;;;;;5011937;28;20033;-74
2020/12/21 06:06:30;;;;;;;142.05;51.60;;;5.30;99.90;;;;;;5012175;28;20034;-75
2020/12/21 06:08:58;;;;;;;145.45;56.75;;;5.30;99.90;;;;;;5010602;28;20042;-75
2020/12/21 06:11:34;;;;;;;143.65;52.20;;;5.40;99.90;;;;;;5011837;28;20395;-74
2020/12/21 06:14:08;;;;;;;149.45;53.72;;;5.40;99.90;;;;;;5012142;28;20045;-74
2020/12/21 06:16:39;;;;;;;147.95;52.08;;;5.40;99.90;;;;;;5012363;28;20041;-75
2020/12/21 06:19:10;;;;;;;148.55;51.17;;;5.30;99.90;;;;;;5012062;28;20038;-74
2020/12/21 06:21:53;;;;;;;;;;;5.30;99.90;;;;;;5012339;28;20085;-74
2020/12/21 06:24:24;;;;;;;131.02;49.67;;;5.40;99.90;;;;;;5010583;28;20069;-74
2020/12/21 06:26:52;;;;;;;145.32;52.00;;;5.40;99.90;;;;;;5012942;28;20046;-75
2020/12/21 06:29:25;;;;;;;139.43;53.42;;;5.40;99.90;;;;;;5012211;28;20113;-75
2020/12/21 06:31:53;;;;;;;154.38;52.67;;;5.40;99.90;;;;;;5012203;28;20038;-75
2020/12/21 06:34:35;;;;;;;143.73;49.45;;;5.30;99.90;;;;;;5011454;28;20606;-74
2020/12/21 06:37:06;;;;;;;141.02;50.50;;;5.20;99.90;;;;;;5010067;28;20049;-74
2020/12/21 06:39:34;;;;;;;146.50;53.38;;;5.20;99.90;;;;;;5031545;28;20036;-74
2020/12/21 06:42:01;;;;;;;140.73;51.35;;;5.20;99.90;;;;;;5013666;28;20041;-74
2020/12/21 06:44:29;;;;;;;144.20;52.78;;;5.30;99.90;;;;;;5012052;28;20026;-74
2020/12/21 06:46:56;;;;;;;138.15;51.47;;;5.30;99.90;;;;;;5011902;28;20029;-74
2020/12/21 06:49:23;;;;;;;149.80;51.05;;;5.30;99.90;;;;;;5011621;28;20037;-74
2020/12/21 06:51:49;;;;;;;149.52;52.50;;;5.30;99.90;;;;;;5014407;28;20471;-75
2020/12/21 06:54:18;;;;;;;135.98;52.35;;;5.30;99.90;;;;;;5014970;28;20026;-74
2020/12/21 06:56:46;;;;;;;137.90;52.72;;;5.30;99.90;;;;;;5015325;28;20033;-75
2020/12/21 06:59:17;;;;;;;152.55;53.55;;;5.30;99.90;;;;;;5014846;28;20030;-74
2020/12/21 07:01:49;;;;;;;148.68;53.42;;;5.30;99.90;;;;;;5015559;28;20037;-75
2020/12/21 07:04:20;;;;;;;149.52;53.63;;;5.30;99.90;;;;;;5015335;28;20048;-74
2020/12/21 07:06:46;;;;;;;142.70;52.15;;;5.30;99.90;;;;;;5015251;28;20037;-75
2020/12/21 07:09:15;;;;;;;138.15;52.47;;;5.30;99.90;;;;;;5014730;28;20034;-74
2020/12/21 07:11:42;;;;;;;138.32;51.53;;;5.30;99.90;;;;;;5014826;28;20038;-75
2020/12/21 07:14:12;;;;;;;139.05;50.85;;;5.30;99.90;;;;;;5014945;28;20034;-75
2020/12/21 07:16:39;;;;;;;131.18;51.33;;;5.20;99.90;;;;;;5014841;28;20042;-75
2020/12/21 07:19:05;;;;;;;132.35;50.88;;;5.20;99.90;;;;;;5015226;28;20455;-75
2020/12/21 07:21:31;;;;;;;133.00;50.35;;;5.20;99.90;;;;;;5014178;28;20045;-75
2020/12/21 07:23:58;;;;;;;145.13;54.30;;;5.10;99.90;;;;;;5015098;28;20482;-75
2020/12/21 07:26:26;;;;;;;180.32;71.88;;;5.30;99.90;;;;;;5013641;28;20053;-75
2020/12/21 07:28:53;;;;;;;165.95;62.42;;;5.40;99.90;;;;;;5014528;28;20026;-75
2020/12/21 07:31:20;;;;;;;445.38;177.73;;;5.50;99.90;;;;;;5014256;28;20065;-75
2020/12/21 07:33:51;;;;;;;191.45;78.07;;;5.60;99.90;;;;;;5014558;28;20492;-75
2020/12/21 07:36:18;;;;;;;425.25;154.02;;;5.60;99.90;;;;;;5012674;28;20045;-76
2020/12/21 07:38:45;;;;;;;409.23;163.98;;;5.60;99.90;;;;;;5014763;28;20034;-75
2020/12/21 07:41:13;;;;;;;195.75;78.57;;;5.60;99.90;;;;;;5014397;28;20042;-75
2020/12/21 07:43:43;;;;;;;134.90;57.22;;;5.70;99.90;;;;;;5014210;28;20025;-75
2020/12/21 07:46:21;;;;;;;177.57;62.60;;;5.70;99.90;;;;;;5014014;28;20037;-75
2020/12/21 07:48:48;;;;;;;338.55;112.53;;;5.80;99.90;;;;;;5013539;28;20049;-76
2020/12/21 07:51:21;;;;;;;276.38;100.22;;;5.70;99.90;;;;;;5014127;28;20040;-75
2020/12/21 07:53:47;;;;;;;661.67;236.82;;;5.60;99.90;;;;;;5014658;28;20038;-75
2020/12/21 07:56:17;;;;;;;324.55;114.93;;;5.70;99.90;;;;;;5014232;28;20036;-76
2020/12/21 07:58:44;;;;;;;579.80;202.38;;;5.70;99.90;;;;;;5013801;28;20376;-75
2020/12/21 08:01:11;;;;;;;275.50;98.43;;;5.70;99.90;;;;;;5013853;28;20040;-75
2020/12/21 08:03:40;;;;;;;643.30;221.65;;;5.70;99.90;;;;;;5012973;28;20030;-77
2020/12/21 08:06:08;;;;;;;529.35;196.18;;;5.70;99.90;;;;;;5013541;28;20033;-75
2020/12/21 08:08:36;;;;;;;521.92;178.18;;;5.80;99.90;;;;;;5013783;28;20041;-77
2020/12/21 08:11:02;;;;;;;368.40;124.07;;;5.90;99.90;;;;;;5014968;28;20407;-76
2020/12/21 08:13:28;;;;;;;306.05;104.78;;;5.90;99.90;;;;;;5013905;28;20487;-76
2020/12/21 08:16:15;;;;;;;277.25;105.10;;;5.90;99.90;;;;;;5028194;28;20457;-77
2020/12/21 08:18:49;;;;;;;189.68;73.68;;;5.90;99.90;;;;;;5023747;28;20043;-76
2020/12/21 08:21:15;;;;;;;258.30;96.43;;;6.00;99.90;;;;;;5012286;28;20033;-75
2020/12/21 08:23:54;;;;;;;321.67;113.60;;;6.00;99.90;;;;;;5013216;28;20475;-75
2020/12/21 08:26:21;;;;;;;382.17;135.63;;;6.10;99.90;;;;;;5019356;28;20466;-75
2020/12/21 08:28:51;;;;;;;340.30;131.45;;;6.20;99.90;;;;;;5021950;28;20498;-75
2020/12/21 08:31:22;;;;;;;176.77;71.55;;;6.20;99.90;;;;;;5012817;28;20049;-75
2020/12/21 08:34:00;;;;;;;160.95;57.97;;;6.30;99.90;;;;;;5013911;28;20048;-76
2020/12/21 08:36:29;;;;;;;358.83;142.35;;;6.30;99.90;;;;;;5013679;28;20483;-76
2020/12/21 08:39:15;;;;;;;212.98;82.70;;;6.40;99.90;;;;;;5013645;28;20034;-75
2020/12/21 08:41:46;;;;;;;164.65;67.43;;;6.40;99.90;;;;;;5013904;28;20041;-75
2020/12/21 08:44:21;;;;;;;125.40;53.55;;;6.50;99.90;;;;;;5013826;28;20367;-75
2020/12/21 08:46:53;;;;;;;113.65;47.53;;;6.60;99.90;;;;;;5028147;28;20404;-76
2020/12/21 08:49:20;;;;;;;251.68;109.15;;;6.60;99.90;;;;;;5012250;28;20045;-75
2020/12/21 08:51:47;;;;;;;292.15;133.45;;;6.60;99.90;;;;;;5013731;28;20349;-76
2020/12/21 08:54:14;;;;;;;141.80;65.32;;;6.70;99.90;;;;;;5013231;28;20030;-75
2020/12/21 08:56:46;;;;;;;121.97;52.75;;;6.70;99.90;;;;;;5013311;28;20379;-76
2020/12/21 08:59:12;;;;;;;174.93;83.03;;;6.70;99.90;;;;;;5012744;28;20463;-75
2020/12/21 09:01:45;;;;;;;377.95;160.88;;;6.80;99.90;;;;;;5013459;28;20390;-76
2020/12/21 09:04:12;;;;;;;159.23;72.93;;;6.80;99.90;;;;;;5012819;28;20028;-75
2020/12/21 09:06:38;;;;;;;143.63;61.00;;;6.70;99.90;;;;;;5013287;28;20100;-75
2020/12/21 09:09:06;;;;;;;102.13;46.85;;;6.80;99.90;;;;;;5011936;28;20038;-75
2020/12/21 09:11:32;;;;;;;114.30;51.88;;;6.80;99.90;;;;;;5012873;28;20471;-75
2020/12/21 09:13:59;;;;;;;120.13;53.20;;;6.80;99.90;;;;;;5012254;28;20045;-76
2020/12/21 09:16:27;;;;;;;119.45;56.08;;;6.80;99.90;;;;;;5012381;28;20030;-75
2020/12/21 09:18:55;;;;;;;87.32;39.38;;;6.80;99.90;;;;;;5021041;28;20040;-75
2020/12/21 09:21:27;;;;;;;77.18;36.33;;;6.70;99.90;;;;;;5020138;28;20036;-74
2020/12/21 09:23:55;;;;;;;109.07;47.17;;;6.60;99.90;;;;;;5019781;28;20025;-76
2020/12/21 09:26:22;;;;;;;83.32;37.83;;;6.70;99.90;;;;;;5014726;28;20037;-74
2020/12/21 09:28:50;;;;;;;85.63;42.00;;;6.70;99.90;;;;;;5013002;28;20034;-74
2020/12/21 09:31:17;;;;;;;120.57;59.53;;;6.70;99.90;;;;;;5012320;28;20395;-76
2020/12/21 09:33:45;;;;;;;96.22;45.05;;;6.70;99.90;;;;;;5017080;28;20403;-75
2020/12/21 09:36:13;;;;;;;101.20;49.42;;;6.70;99.90;;;;;;5010671;28;20476;-75
2020/12/21 09:38:40;;;;;;;66.35;32.75;;;6.70;99.90;;;;;;5012707;28;20033;-74
2020/12/21 09:41:07;;;;;;;91.50;45.45;;;6.70;99.90;;;;;;5012014;28;20036;-74
2020/12/21 09:43:33;;;;;;;69.15;34.80;;;6.80;99.90;;;;;;5012344;28;20030;-74
2020/12/21 09:46:00;;;;;;;73.93;35.25;;;6.80;99.90;;;;;;5010535;28;20048;-75
2020/12/21 09:48:27;;;;;;;81.68;40.10;;;6.90;99.90;;;;;;5012428;28;20026;-74
2020/12/21 09:50:53;;;;;;;73.40;36.92;;;6.90;99.90;;;;;;5012360;28;20483;-75
2020/12/21 09:53:19;;;;;;;68.82;33.35;;;6.90;99.90;;;;;;5013769;28;20025;-75
2020/12/21 09:55:48;;;;;;;57.28;30.30;;;6.90;99.90;;;;;;5020830;28;20038;-75
2020/12/21 09:58:15;;;;;;;58.72;29.27;;;6.90;99.90;;;;;;5018902;28;20048;-75
2020/12/21 10:00:41;;;;;;;58.92;28.80;;;7.00;99.90;;;;;;5020199;28;20049;-74
2020/12/21 10:03:07;;;;;;;56.63;27.45;;;7.00;99.90;;;;;;5019598;28;20383;-75
2020/12/21 10:05:33;;;;;;;52.58;26.27;;;7.00;99.90;;;;;;5022943;28;20034;-76
2020/12/21 10:08:00;;;;;;;66.25;31.65;;;7.10;99.90;;;;;;5021352;28;20037;-77
2020/12/21 10:10:26;;;;;;;54.67;26.90;;;7.10;99.90;;;;;;5020869;28;20032;-76
2020/12/21 10:12:52;;;;;;;47.90;26.33;;;7.10;99.90;;;;;;5024740;28;20033;-76
2020/12/21 10:15:18;;;;;;;52.72;26.48;;;7.10;99.90;;;;;;5022403;28;20093;-76
2020/12/21 10:17:45;;;;;;;48.75;23.25;;;7.20;99.90;;;;;;5026902;28;20026;-76
2020/12/21 10:20:11;;;;;;;50.30;25.42;;;7.20;99.90;;;;;;5010137;28;20487;-76
2020/12/21 10:22:37;;;;;;;44.20;23.27;;;7.30;99.90;;;;;;5011872;28;20517;-76
2020/12/21 10:25:04;;;;;;;49.08;26.45;;;7.30;99.90;;;;;;5011622;28;20037;-77
2020/12/21 10:27:30;;;;;;;47.67;24.88;;;7.30;99.90;;;;;;5016184;28;20371;-77
2020/12/21 10:29:56;;;;;;;51.58;25.70;;;7.30;99.90;;;;;;5028771;28;20042;-77
2020/12/21 10:32:23;;;;;;;37.72;20.92;;;7.30;99.90;;;;;;5025127;28;20053;-76
2020/12/21 10:34:49;;;;;;;50.88;28.83;;;7.40;99.90;;;;;;5025941;28;20041;-77
2020/12/21 10:37:15;;;;;;;33.85;19.75;;;7.40;99.90;;;;;;5014884;28;20459;-76
2020/12/21 10:39:41;;;;;;;30.33;18.23;;;7.40;99.90;;;;;;5015243;28;20497;-77
2020/12/21 10:42:08;;;;;;;45.88;22.65;;;7.40;99.90;;;;;;5023124;28;20037;-76
2020/12/21 10:44:34;;;;;;;46.28;25.98;;;7.50;99.90;;;;;;5031304;28;20034;-77
2020/12/21 10:47:00;;;;;;;29.90;17.95;;;7.50;99.90;;;;;;5015298;28;20026;-76
2020/12/21 10:49:27;;;;;;;33.03;17.73;;;7.60;99.90;;;;;;5020257;28;20781;-76
2020/12/21 10:51:53;;;;;;;32.17;20.27;;;7.60;99.90;;;;;;5028109;28;20471;-76
2020/12/21 10:54:19;;;;;;;24.50;16.05;;;7.70;99.90;;;;;;5028592;28;20395;-76
2020/12/21 10:56:45;;;;;;;25.02;14.15;;;7.80;99.90;;;;;;5015193;28;20053;-76
2020/12/21 10:59:12;;;;;;;23.60;14.77;;;7.80;99.90;;;;;;5019580;28;20026;-76
2020/12/21 11:01:44;;;;;;;26.73;16.05;;;7.90;99.90;;;;;;5030149;28;20045;-76
2020/12/21 11:04:10;;;;;;;19.70;13.50;;;8.00;99.90;;;;;;5019163;28;20030;-76
2020/12/21 11:06:36;;;;;;;18.05;11.27;;;8.10;99.90;;;;;;5019788;28;20034;-76
2020/12/21 11:09:03;;;;;;;28.75;14.80;;;8.10;99.90;;;;;;5014868;28;20033;-76
2020/12/21 11:11:31;;;;;;;18.38;11.65;;;8.20;99.90;;;;;;5020182;28;20467;-74
2020/12/21 11:13:59;;;;;;;18.80;10.00;;;8.20;99.90;;;;;;5041482;28;20030;-76
2020/12/21 11:16:25;;;;;;;12.30;9.32;;;8.30;99.90;;;;;;5020547;28;20042;-77
2020/12/21 11:18:52;;;;;;;15.68;9.43;;;8.40;99.90;;;;;;5014273;28;20379;-76
2020/12/21 11:21:18;;;;;;;14.13;9.07;;;8.50;99.90;;;;;;5014056;28;20048;-77
2020/12/21 11:23:44;;;;;;;12.43;7.50;;;8.60;99.90;;;;;;5013909;28;20361;-76
2020/12/21 11:26:13;;;;;;;14.18;7.82;;;8.60;99.90;;;;;;5013935;28;20034;-76
2020/12/21 11:28:40;;;;;;;13.30;6.88;;;8.70;99.90;;;;;;5014870;28;20037;-76
2020/12/21 11:31:07;;;;;;;13.43;7.63;;;8.70;99.90;;;;;;5013404;28;20045;-76
2020/12/21 11:33:33;;;;;;;10.40;6.35;;;8.80;99.90;;;;;;5013591;28;20045;-76
2020/12/21 11:35:59;;;;;;;9.60;6.85;;;8.80;99.90;;;;;;5014730;28;20033;-76
2020/12/21 11:38:26;;;;;;;11.25;6.88;;;8.80;99.90;;;;;;5013826;28;20098;-76
2020/12/21 11:40:52;;;;;;;10.35;5.65;;;8.80;99.90;;;;;;5014894;28;20030;-76
2020/12/21 11:43:18;;;;;;;8.95;5.80;;;8.70;99.90;;;;;;5020488;28;20057;-74
2020/12/21 11:45:47;;;;;;;10.82;5.45;;;8.80;99.90;;;;;;5023793;28;20030;-76
2020/12/21 11:48:13;;;;;;;7.93;5.22;;;8.80;99.90;;;;;;5023345;28;20478;-76
2020/12/21 11:50:39;;;;;;;10.60;5.90;;;8.80;99.90;;;;;;5031475;28;20038;-76
2020/12/21 11:53:06;;;;;;;8.48;5.25;;;8.80;99.90;;;;;;5017924;28;20041;-75
2020/12/21 11:55:32;;;;;;;8.63;5.72;;;8.80;99.90;;;;;;5014485;28;20460;-75
2020/12/21 11:57:58;;;;;;;10.50;5.75;;;8.80;99.90;;;;;;5014220;28;20034;-75
2020/12/21 12:00:25;;;;;;;8.73;5.22;;;8.90;99.90;;;;;;5014757;28;20239;-76
2020/12/21 12:02:51;;;;;;;9.23;5.75;;;8.90;99.90;;;;;;5018317;28;20042;-76
2020/12/21 12:05:17;;;;;;;7.85;5.95;;;9.00;99.90;;;;;;5011968;28;20467;-76
2020/12/21 12:07:43;;;;;;;9.40;5.75;;;9.10;99.90;;;;;;5013406;28;20033;-76
2020/12/21 12:10:09;;;;;;;9.82;5.63;;;9.20;99.90;;;;;;5013457;28;20034;-75
2020/12/21 12:12:36;;;;;;;8.68;5.55;;;9.10;99.90;;;;;;5014582;28;20042;-75
2020/12/21 12:15:03;;;;;;;9.45;5.22;;;9.00;99.90;;;;;;5029153;28;20498;-76
2020/12/21 12:17:29;;;;;;;8.55;6.05;;;9.10;99.90;;;;;;5013326;28;20038;-76
2020/12/21 12:19:55;;;;;;;7.07;4.88;;;9.10;99.90;;;;;;5014101;28;20041;-76
2020/12/21 12:22:21;;;;;;;7.75;5.25;;;8.90;99.90;;;;;;5013235;28;20491;-75
2020/12/21 12:24:47;;;;;;;9.38;5.28;;;8.90;99.90;;;;;;5013438;28;20032;-76
2020/12/21 12:27:14;;;;;;;7.97;4.60;;;8.90;99.90;;;;;;5014316;28;20038;-76
2020/12/21 12:29:40;;;;;;;9.13;5.95;;;8.80;99.90;;;;;;5019028;28;20045;-76
2020/12/21 12:32:07;;;;;;;8.95;5.47;;;8.70;99.90;;;;;;5012686;28;20065;-76
2020/12/21 12:34:33;;;;;;;8.70;5.53;;;8.70;99.90;;;;;;5013301;28;20041;-76